sensor_id;sensor_type;location;lat;lon;timestamp;P1;durP1;ratioP1;P2;durP2;ratioP2
12654;SDS011;6392;44.644;11.448;2023-02-01T00:01:22;16.57;;;8.57;;
12654;SDS011;6392;44.644;11.448;2023-02-01T00:03:49;16.87;;;8.63;;
12654;SDS011;6392;44.644;11.448;2023-02-01T00:06:16;16.30;;;8.47;;
12654;SDS011;6392;44.644;11.448;2023-02-01T00:08:43;14.37;;;8.07;;
12654;SDS011;6392;44.644;11.448;2023-02-01T00:11:11;15.83;;;7.83;;
12654;SDS011;6392;44.644;11.448;2023-02-01T00:13:40;13.93;;;8.43;;
12654;SDS011;6392;44.644;11.448;2023-02-01T00:16:09;11.60;;;6.53;;
12654;SDS011;6392;44.644;11.448;2023-02-01T00:18:38;11.33;;;7.20;;
12654;SDS011;6392;44.644;11.448;2023-02-01T00:21:05;12.20;;;7.53;;
12654;SDS011;6392;44.644;11.448;2023-02-01T00:23:32;11.87;;;6.67;;
12654;SDS011;6392;44.644;11.448;2023-02-01T00:26:00;9.30;;;5.67;;
12654;SDS011;6392;44.644;11.448;2023-02-01T00:28:29;10.57;;;5.30;;
12654;SDS011;6392;44.644;11.448;2023-02-01T00:30:56;10.50;;;5.30;;
12654;SDS011;6392;44.644;11.448;2023-02-01T00:33:24;9.27;;;5.80;;
12654;SDS011;6392;44.644;11.448;2023-02-01T00:35:51;10.37;;;4.90;;
12654;SDS011;6392;44.644;11.448;2023-02-01T00:38:22;9.73;;;5.00;;
12654;SDS011;6392;44.644;11.448;2023-02-01T00:40:49;9.27;;;4.87;;
12654;SDS011;6392;44.644;11.448;2023-02-01T00:43:16;9.10;;;4.80;;
12654;SDS011;6392;44.644;11.448;2023-02-01T00:45:46;8.07;;;4.60;;
12654;SDS011;6392;44.644;11.448;2023-02-01T00:48:13;7.90;;;4.70;;
12654;SDS011;6392;44.644;11.448;2023-02-01T00:50:41;7.20;;;4.13;;
12654;SDS011;6392;44.644;11.448;2023-02-01T00:53:08;7.60;;;4.40;;
12654;SDS011;6392;44.644;11.448;2023-02-01T00:55:35;8.43;;;4.40;;
12654;SDS011;6392;44.644;11.448;2023-02-01T00:58:03;7.23;;;4.70;;
12654;SDS011;6392;44.644;11.448;2023-02-01T01:00:31;10.00;;;6.63;;
12654;SDS011;6392;44.644;11.448;2023-02-01T01:03:02;11.13;;;6.57;;
12654;SDS011;6392;44.644;11.448;2023-02-01T01:05:43;14.40;;;7.37;;
12654;SDS011;6392;44.644;11.448;2023-02-01T01:08:11;11.80;;;6.83;;
12654;SDS011;6392;44.644;11.448;2023-02-01T01:10:40;13.97;;;7.57;;
12654;SDS011;6392;44.644;11.448;2023-02-01T01:13:09;13.10;;;7.40;;
12654;SDS011;6392;44.644;11.448;2023-02-01T01:15:36;17.87;;;8.00;;
12654;SDS011;6392;44.644;11.448;2023-02-01T01:18:05;15.17;;;8.17;;
12654;SDS011;6392;44.644;11.448;2023-02-01T01:20:33;12.50;;;7.20;;
12654;SDS011;6392;44.644;11.448;2023-02-01T01:23:01;14.80;;;8.43;;
12654;SDS011;6392;44.644;11.448;2023-02-01T01:25:29;12.50;;;6.73;;
12654;SDS011;6392;44.644;11.448;2023-02-01T01:27:56;12.43;;;7.43;;
12654;SDS011;6392;44.644;11.448;2023-02-01T01:30:23;15.20;;;8.60;;
12654;SDS011;6392;44.644;11.448;2023-02-01T01:32:51;16.70;;;8.00;;
12654;SDS011;6392;44.644;11.448;2023-02-01T01:35:20;13.63;;;7.50;;
12654;SDS011;6392;44.644;11.448;2023-02-01T01:37:47;14.10;;;6.93;;
12654;SDS011;6392;44.644;11.448;2023-02-01T01:40:14;12.03;;;7.43;;
12654;SDS011;6392;44.644;11.448;2023-02-01T01:42:42;11.70;;;6.73;;
12654;SDS011;6392;44.644;11.448;2023-02-01T01:45:18;10.40;;;6.53;;
12654;SDS011;6392;44.644;11.448;2023-02-01T01:47:51;13.17;;;7.40;;
12654;SDS011;6392;44.644;11.448;2023-02-01T01:50:23;10.37;;;6.20;;
12654;SDS011;6392;44.644;11.448;2023-02-01T01:52:51;11.50;;;6.87;;
12654;SDS011;6392;44.644;11.448;2023-02-01T01:55:20;15.07;;;7.60;;
12654;SDS011;6392;44.644;11.448;2023-02-01T01:57:51;13.37;;;7.87;;
12654;SDS011;6392;44.644;11.448;2023-02-01T02:00:23;13.37;;;7.60;;
12654;SDS011;6392;44.644;11.448;2023-02-01T02:02:53;14.03;;;7.03;;
12654;SDS011;6392;44.644;11.448;2023-02-01T02:05:26;10.77;;;6.80;;
12654;SDS011;6392;44.644;11.448;2023-02-01T02:07:54;11.13;;;6.60;;
12654;SDS011;6392;44.644;11.448;2023-02-01T02:10:24;12.60;;;6.80;;
12654;SDS011;6392;44.644;11.448;2023-02-01T02:13:11;14.57;;;7.50;;
12654;SDS011;6392;44.644;11.448;2023-02-01T02:15:41;10.60;;;6.87;;
12654;SDS011;6392;44.644;11.448;2023-02-01T02:18:13;17.00;;;7.60;;
12654;SDS011;6392;44.644;11.448;2023-02-01T02:21:09;14.67;;;7.47;;
12654;SDS011;6392;44.644;11.448;2023-02-01T02:26:56;15.60;;;8.00;;
12654;SDS011;6392;44.644;11.448;2023-02-01T02:32:29;14.17;;;7.43;;
12654;SDS011;6392;44.644;11.448;2023-02-01T02:35:26;16.03;;;8.60;;
12654;SDS011;6392;44.644;11.448;2023-02-01T02:37:59;13.53;;;8.40;;
12654;SDS011;6392;44.644;11.448;2023-02-01T02:40:36;19.13;;;10.27;;
12654;SDS011;6392;44.644;11.448;2023-02-01T02:43:10;15.60;;;9.13;;
12654;SDS011;6392;44.644;11.448;2023-02-01T02:46:04;14.90;;;9.07;;
12654;SDS011;6392;44.644;11.448;2023-02-01T02:48:52;16.57;;;7.93;;
12654;SDS011;6392;44.644;11.448;2023-02-01T02:51:27;17.13;;;9.30;;
12654;SDS011;6392;44.644;11.448;2023-02-01T02:54:16;16.00;;;10.27;;
12654;SDS011;6392;44.644;11.448;2023-02-01T02:57:18;20.97;;;10.67;;
12654;SDS011;6392;44.644;11.448;2023-02-01T03:00:06;17.03;;;9.60;;
12654;SDS011;6392;44.644;11.448;2023-02-01T03:02:54;13.83;;;9.07;;
12654;SDS011;6392;44.644;11.448;2023-02-01T03:05:40;14.10;;;9.00;;
12654;SDS011;6392;44.644;11.448;2023-02-01T03:08:12;17.80;;;8.83;;
12654;SDS011;6392;44.644;11.448;2023-02-01T03:13:28;15.43;;;9.43;;
12654;SDS011;6392;44.644;11.448;2023-02-01T03:16:02;17.37;;;8.90;;
12654;SDS011;6392;44.644;11.448;2023-02-01T03:18:33;14.33;;;8.47;;
12654;SDS011;6392;44.644;11.448;2023-02-01T03:21:07;15.20;;;9.33;;
12654;SDS011;6392;44.644;11.448;2023-02-01T03:23:40;16.93;;;9.83;;
12654;SDS011;6392;44.644;11.448;2023-02-01T03:26:11;15.00;;;9.47;;
12654;SDS011;6392;44.644;11.448;2023-02-01T03:28:42;16.57;;;9.53;;
12654;SDS011;6392;44.644;11.448;2023-02-01T03:31:12;12.03;;;8.97;;
12654;SDS011;6392;44.644;11.448;2023-02-01T03:33:39;14.97;;;8.67;;
12654;SDS011;6392;44.644;11.448;2023-02-01T03:36:12;16.57;;;9.07;;
12654;SDS011;6392;44.644;11.448;2023-02-01T03:38:47;17.93;;;9.50;;
12654;SDS011;6392;44.644;11.448;2023-02-01T03:41:21;17.87;;;9.27;;
12654;SDS011;6392;44.644;11.448;2023-02-01T03:43:53;17.77;;;9.90;;
12654;SDS011;6392;44.644;11.448;2023-02-01T03:46:27;14.50;;;9.63;;
12654;SDS011;6392;44.644;11.448;2023-02-01T03:48:58;20.00;;;10.60;;
12654;SDS011;6392;44.644;11.448;2023-02-01T03:51:29;19.10;;;10.63;;
12654;SDS011;6392;44.644;11.448;2023-02-01T03:53:58;21.57;;;10.87;;
12654;SDS011;6392;44.644;11.448;2023-02-01T03:56:28;17.33;;;10.57;;
12654;SDS011;6392;44.644;11.448;2023-02-01T03:58:57;16.83;;;9.77;;
12654;SDS011;6392;44.644;11.448;2023-02-01T04:01:25;15.33;;;8.93;;
12654;SDS011;6392;44.644;11.448;2023-02-01T04:03:54;15.80;;;9.40;;
12654;SDS011;6392;44.644;11.448;2023-02-01T04:06:21;15.80;;;9.27;;
12654;SDS011;6392;44.644;11.448;2023-02-01T04:08:48;14.57;;;9.67;;
12654;SDS011;6392;44.644;11.448;2023-02-01T04:11:16;18.00;;;10.20;;
12654;SDS011;6392;44.644;11.448;2023-02-01T04:13:44;21.20;;;11.50;;
12654;SDS011;6392;44.644;11.448;2023-02-01T04:16:11;21.93;;;11.37;;
12654;SDS011;6392;44.644;11.448;2023-02-01T04:18:38;18.90;;;10.63;;
12654;SDS011;6392;44.644;11.448;2023-02-01T04:21:05;17.73;;;10.53;;
12654;SDS011;6392;44.644;11.448;2023-02-01T04:23:32;21.23;;;11.73;;
12654;SDS011;6392;44.644;11.448;2023-02-01T04:26:01;18.57;;;11.20;;
12654;SDS011;6392;44.644;11.448;2023-02-01T04:28:31;21.17;;;11.03;;
12654;SDS011;6392;44.644;11.448;2023-02-01T04:30:58;20.63;;;10.50;;
12654;SDS011;6392;44.644;11.448;2023-02-01T04:33:25;18.37;;;10.10;;
12654;SDS011;6392;44.644;11.448;2023-02-01T04:35:52;18.27;;;10.87;;
12654;SDS011;6392;44.644;11.448;2023-02-01T04:38:19;18.00;;;10.53;;
12654;SDS011;6392;44.644;11.448;2023-02-01T04:40:47;18.60;;;10.40;;
12654;SDS011;6392;44.644;11.448;2023-02-01T04:43:14;18.33;;;9.87;;
12654;SDS011;6392;44.644;11.448;2023-02-01T04:45:45;19.33;;;10.00;;
12654;SDS011;6392;44.644;11.448;2023-02-01T04:48:14;15.87;;;8.80;;
12654;SDS011;6392;44.644;11.448;2023-02-01T04:50:41;17.70;;;9.90;;
12654;SDS011;6392;44.644;11.448;2023-02-01T04:53:10;14.37;;;9.33;;
12654;SDS011;6392;44.644;11.448;2023-02-01T04:55:37;14.87;;;9.20;;
12654;SDS011;6392;44.644;11.448;2023-02-01T04:58:04;16.00;;;9.47;;
12654;SDS011;6392;44.644;11.448;2023-02-01T05:00:31;13.33;;;8.70;;
12654;SDS011;6392;44.644;11.448;2023-02-01T05:02:59;14.77;;;8.23;;
12654;SDS011;6392;44.644;11.448;2023-02-01T05:05:26;15.30;;;8.97;;
12654;SDS011;6392;44.644;11.448;2023-02-01T05:07:54;16.53;;;8.50;;
12654;SDS011;6392;44.644;11.448;2023-02-01T05:10:21;14.17;;;9.07;;
12654;SDS011;6392;44.644;11.448;2023-02-01T05:12:48;14.30;;;8.20;;
12654;SDS011;6392;44.644;11.448;2023-02-01T05:15:33;13.60;;;8.87;;
12654;SDS011;6392;44.644;11.448;2023-02-01T05:18:02;13.60;;;7.77;;
12654;SDS011;6392;44.644;11.448;2023-02-01T05:20:29;14.17;;;8.57;;
12654;SDS011;6392;44.644;11.448;2023-02-01T05:22:56;13.73;;;7.97;;
12654;SDS011;6392;44.644;11.448;2023-02-01T05:25:23;17.53;;;9.73;;
12654;SDS011;6392;44.644;11.448;2023-02-01T05:27:50;16.60;;;9.00;;
12654;SDS011;6392;44.644;11.448;2023-02-01T05:30:17;16.63;;;9.43;;
12654;SDS011;6392;44.644;11.448;2023-02-01T05:32:44;18.10;;;9.30;;
12654;SDS011;6392;44.644;11.448;2023-02-01T05:35:12;18.80;;;9.60;;
12654;SDS011;6392;44.644;11.448;2023-02-01T05:37:40;16.67;;;9.00;;
12654;SDS011;6392;44.644;11.448;2023-02-01T05:40:07;16.73;;;8.53;;
12654;SDS011;6392;44.644;11.448;2023-02-01T05:42:35;14.40;;;8.43;;
12654;SDS011;6392;44.644;11.448;2023-02-01T05:45:02;11.77;;;8.13;;
12654;SDS011;6392;44.644;11.448;2023-02-01T05:47:30;15.07;;;8.40;;
12654;SDS011;6392;44.644;11.448;2023-02-01T05:49:57;13.73;;;7.53;;
12654;SDS011;6392;44.644;11.448;2023-02-01T05:52:25;12.83;;;7.73;;
12654;SDS011;6392;44.644;11.448;2023-02-01T05:54:52;14.00;;;7.90;;
12654;SDS011;6392;44.644;11.448;2023-02-01T05:57:19;11.87;;;7.00;;
12654;SDS011;6392;44.644;11.448;2023-02-01T05:59:46;12.57;;;7.60;;
12654;SDS011;6392;44.644;11.448;2023-02-01T06:02:13;11.73;;;8.07;;
12654;SDS011;6392;44.644;11.448;2023-02-01T06:04:41;16.07;;;9.30;;
12654;SDS011;6392;44.644;11.448;2023-02-01T06:07:08;12.03;;;7.50;;
12654;SDS011;6392;44.644;11.448;2023-02-01T06:09:37;14.63;;;8.60;;
12654;SDS011;6392;44.644;11.448;2023-02-01T06:12:04;12.20;;;7.47;;
12654;SDS011;6392;44.644;11.448;2023-02-01T06:14:31;12.97;;;8.17;;
12654;SDS011;6392;44.644;11.448;2023-02-01T06:16:59;14.07;;;7.00;;
12654;SDS011;6392;44.644;11.448;2023-02-01T06:19:26;14.20;;;8.00;;
12654;SDS011;6392;44.644;11.448;2023-02-01T06:21:53;11.50;;;6.73;;
12654;SDS011;6392;44.644;11.448;2023-02-01T06:24:20;11.03;;;6.13;;
12654;SDS011;6392;44.644;11.448;2023-02-01T06:26:48;10.40;;;6.37;;
12654;SDS011;6392;44.644;11.448;2023-02-01T06:29:15;12.60;;;7.00;;
12654;SDS011;6392;44.644;11.448;2023-02-01T06:31:42;12.83;;;6.33;;
12654;SDS011;6392;44.644;11.448;2023-02-01T06:34:09;10.80;;;5.20;;
12654;SDS011;6392;44.644;11.448;2023-02-01T06:36:36;9.83;;;5.90;;
12654;SDS011;6392;44.644;11.448;2023-02-01T06:39:03;11.23;;;6.37;;
12654;SDS011;6392;44.644;11.448;2023-02-01T06:41:30;9.10;;;6.00;;
12654;SDS011;6392;44.644;11.448;2023-02-01T06:44:01;11.43;;;6.40;;
12654;SDS011;6392;44.644;11.448;2023-02-01T06:46:28;17.50;;;7.70;;
12654;SDS011;6392;44.644;11.448;2023-02-01T06:48:55;11.17;;;7.40;;
12654;SDS011;6392;44.644;11.448;2023-02-01T06:51:23;12.13;;;6.67;;
12654;SDS011;6392;44.644;11.448;2023-02-01T06:53:51;12.47;;;6.27;;
12654;SDS011;6392;44.644;11.448;2023-02-01T06:56:18;11.83;;;5.63;;
12654;SDS011;6392;44.644;11.448;2023-02-01T06:58:45;13.23;;;6.20;;
12654;SDS011;6392;44.644;11.448;2023-02-01T07:01:14;13.67;;;6.70;;
12654;SDS011;6392;44.644;11.448;2023-02-01T07:03:42;12.63;;;5.63;;
12654;SDS011;6392;44.644;11.448;2023-02-01T07:06:12;14.00;;;6.40;;
12654;SDS011;6392;44.644;11.448;2023-02-01T07:08:39;11.30;;;5.90;;
12654;SDS011;6392;44.644;11.448;2023-02-01T07:11:07;12.77;;;6.43;;
12654;SDS011;6392;44.644;11.448;2023-02-01T07:13:36;9.37;;;6.20;;
12654;SDS011;6392;44.644;11.448;2023-02-01T07:16:04;14.43;;;6.57;;
12654;SDS011;6392;44.644;11.448;2023-02-01T07:18:34;9.73;;;6.33;;
12654;SDS011;6392;44.644;11.448;2023-02-01T07:21:01;9.43;;;5.27;;
12654;SDS011;6392;44.644;11.448;2023-02-01T07:23:28;8.60;;;5.20;;
12654;SDS011;6392;44.644;11.448;2023-02-01T07:25:55;7.57;;;5.53;;
12654;SDS011;6392;44.644;11.448;2023-02-01T07:28:23;10.53;;;5.67;;
12654;SDS011;6392;44.644;11.448;2023-02-01T07:30:50;10.67;;;6.07;;
12654;SDS011;6392;44.644;11.448;2023-02-01T07:33:18;8.63;;;5.17;;
12654;SDS011;6392;44.644;11.448;2023-02-01T07:35:48;9.23;;;4.50;;
12654;SDS011;6392;44.644;11.448;2023-02-01T07:38:16;7.27;;;4.77;;
12654;SDS011;6392;44.644;11.448;2023-02-01T07:40:44;17.97;;;8.83;;
12654;SDS011;6392;44.644;11.448;2023-02-01T07:43:11;10.47;;;5.23;;
12654;SDS011;6392;44.644;11.448;2023-02-01T07:45:38;10.77;;;6.03;;
12654;SDS011;6392;44.644;11.448;2023-02-01T07:48:05;15.40;;;6.13;;
12654;SDS011;6392;44.644;11.448;2023-02-01T07:50:32;9.07;;;5.47;;
12654;SDS011;6392;44.644;11.448;2023-02-01T07:53:01;9.87;;;5.23;;
12654;SDS011;6392;44.644;11.448;2023-02-01T07:55:28;8.27;;;5.20;;
12654;SDS011;6392;44.644;11.448;2023-02-01T07:57:56;9.13;;;5.30;;
12654;SDS011;6392;44.644;11.448;2023-02-01T08:00:25;8.50;;;5.13;;
12654;SDS011;6392;44.644;11.448;2023-02-01T08:03:10;8.67;;;5.13;;
12654;SDS011;6392;44.644;11.448;2023-02-01T08:05:37;9.03;;;5.27;;
12654;SDS011;6392;44.644;11.448;2023-02-01T08:08:06;9.87;;;5.60;;
12654;SDS011;6392;44.644;11.448;2023-02-01T08:10:33;9.23;;;5.03;;
12654;SDS011;6392;44.644;11.448;2023-02-01T08:13:00;13.23;;;5.17;;
12654;SDS011;6392;44.644;11.448;2023-02-01T08:15:28;9.43;;;5.13;;
12654;SDS011;6392;44.644;11.448;2023-02-01T08:17:56;9.73;;;5.87;;
12654;SDS011;6392;44.644;11.448;2023-02-01T08:20:23;8.67;;;5.70;;
12654;SDS011;6392;44.644;11.448;2023-02-01T08:22:52;9.83;;;5.47;;
12654;SDS011;6392;44.644;11.448;2023-02-01T08:25:20;8.83;;;5.20;;
12654;SDS011;6392;44.644;11.448;2023-02-01T08:27:48;7.63;;;4.93;;
12654;SDS011;6392;44.644;11.448;2023-02-01T08:30:15;9.37;;;5.60;;
12654;SDS011;6392;44.644;11.448;2023-02-01T08:32:42;7.70;;;5.20;;
12654;SDS011;6392;44.644;11.448;2023-02-01T08:35:09;9.73;;;5.77;;
12654;SDS011;6392;44.644;11.448;2023-02-01T08:37:36;9.57;;;5.77;;
12654;SDS011;6392;44.644;11.448;2023-02-01T08:40:04;11.40;;;5.10;;
12654;SDS011;6392;44.644;11.448;2023-02-01T08:42:33;11.33;;;4.93;;
12654;SDS011;6392;44.644;11.448;2023-02-01T08:45:19;11.73;;;4.90;;
12654;SDS011;6392;44.644;11.448;2023-02-01T08:47:49;10.93;;;5.53;;
12654;SDS011;6392;44.644;11.448;2023-02-01T08:50:16;9.97;;;5.40;;
12654;SDS011;6392;44.644;11.448;2023-02-01T08:52:44;10.67;;;6.13;;
12654;SDS011;6392;44.644;11.448;2023-02-01T08:55:12;12.87;;;6.93;;
12654;SDS011;6392;44.644;11.448;2023-02-01T08:57:41;13.17;;;7.43;;
12654;SDS011;6392;44.644;11.448;2023-02-01T09:00:11;19.07;;;8.57;;
12654;SDS011;6392;44.644;11.448;2023-02-01T09:02:40;20.37;;;10.47;;
12654;SDS011;6392;44.644;11.448;2023-02-01T09:05:07;16.63;;;9.30;;
12654;SDS011;6392;44.644;11.448;2023-02-01T09:07:35;19.13;;;10.90;;
12654;SDS011;6392;44.644;11.448;2023-02-01T09:10:03;22.30;;;11.40;;
12654;SDS011;6392;44.644;11.448;2023-02-01T09:12:30;20.50;;;10.83;;
12654;SDS011;6392;44.644;11.448;2023-02-01T09:14:59;21.43;;;12.00;;
12654;SDS011;6392;44.644;11.448;2023-02-01T09:17:27;18.97;;;11.97;;
12654;SDS011;6392;44.644;11.448;2023-02-01T09:19:54;19.47;;;12.17;;
12654;SDS011;6392;44.644;11.448;2023-02-01T09:22:21;20.20;;;12.63;;
12654;SDS011;6392;44.644;11.448;2023-02-01T09:24:48;19.40;;;11.90;;
12654;SDS011;6392;44.644;11.448;2023-02-01T09:27:15;20.73;;;12.77;;
12654;SDS011;6392;44.644;11.448;2023-02-01T09:29:42;24.50;;;12.33;;
12654;SDS011;6392;44.644;11.448;2023-02-01T09:32:11;24.53;;;13.00;;
12654;SDS011;6392;44.644;11.448;2023-02-01T09:34:38;20.13;;;12.67;;
12654;SDS011;6392;44.644;11.448;2023-02-01T09:37:05;22.07;;;13.07;;
12654;SDS011;6392;44.644;11.448;2023-02-01T09:39:32;18.67;;;13.07;;
12654;SDS011;6392;44.644;11.448;2023-02-01T09:42:07;28.30;;;13.80;;
12654;SDS011;6392;44.644;11.448;2023-02-01T09:44:58;21.03;;;13.30;;
12654;SDS011;6392;44.644;11.448;2023-02-01T09:47:37;28.33;;;14.47;;
12654;SDS011;6392;44.644;11.448;2023-02-01T09:50:13;23.27;;;13.50;;
12654;SDS011;6392;44.644;11.448;2023-02-01T09:52:45;26.03;;;14.20;;
12654;SDS011;6392;44.644;11.448;2023-02-01T09:55:20;25.93;;;14.53;;
12654;SDS011;6392;44.644;11.448;2023-02-01T09:57:53;25.10;;;13.70;;
12654;SDS011;6392;44.644;11.448;2023-02-01T10:00:25;20.07;;;13.13;;
12654;SDS011;6392;44.644;11.448;2023-02-01T10:02:56;27.00;;;14.83;;
12654;SDS011;6392;44.644;11.448;2023-02-01T10:05:28;26.90;;;13.80;;
12654;SDS011;6392;44.644;11.448;2023-02-01T10:08:11;28.57;;;15.17;;
12654;SDS011;6392;44.644;11.448;2023-02-01T10:10:46;28.47;;;16.13;;
12654;SDS011;6392;44.644;11.448;2023-02-01T10:13:28;33.43;;;15.60;;
12654;SDS011;6392;44.644;11.448;2023-02-01T10:16:07;27.10;;;15.60;;
12654;SDS011;6392;44.644;11.448;2023-02-01T10:18:55;28.13;;;16.67;;
12654;SDS011;6392;44.644;11.448;2023-02-01T10:21:32;28.67;;;15.77;;
12654;SDS011;6392;44.644;11.448;2023-02-01T10:24:16;30.10;;;15.83;;
12654;SDS011;6392;44.644;11.448;2023-02-01T10:26:50;25.60;;;15.70;;
12654;SDS011;6392;44.644;11.448;2023-02-01T10:29:22;28.87;;;16.40;;
12654;SDS011;6392;44.644;11.448;2023-02-01T10:31:54;27.73;;;15.57;;
12654;SDS011;6392;44.644;11.448;2023-02-01T10:34:24;27.67;;;16.83;;
12654;SDS011;6392;44.644;11.448;2023-02-01T10:36:54;34.53;;;18.43;;
12654;SDS011;6392;44.644;11.448;2023-02-01T10:39:23;32.80;;;18.87;;
12654;SDS011;6392;44.644;11.448;2023-02-01T10:41:50;35.90;;;19.20;;
12654;SDS011;6392;44.644;11.448;2023-02-01T10:44:18;31.40;;;18.50;;
12654;SDS011;6392;44.644;11.448;2023-02-01T10:46:48;27.67;;;17.93;;
12654;SDS011;6392;44.644;11.448;2023-02-01T10:49:16;33.33;;;18.20;;
12654;SDS011;6392;44.644;11.448;2023-02-01T10:51:47;38.97;;;19.53;;
12654;SDS011;6392;44.644;11.448;2023-02-01T10:54:18;36.93;;;20.27;;
12654;SDS011;6392;44.644;11.448;2023-02-01T10:56:46;37.03;;;20.07;;
12654;SDS011;6392;44.644;11.448;2023-02-01T10:59:15;32.00;;;19.23;;
12654;SDS011;6392;44.644;11.448;2023-02-01T11:01:44;38.67;;;20.13;;
12654;SDS011;6392;44.644;11.448;2023-02-01T11:04:13;34.47;;;19.47;;
12654;SDS011;6392;44.644;11.448;2023-02-01T11:06:42;33.30;;;17.90;;
12654;SDS011;6392;44.644;11.448;2023-02-01T11:09:16;28.80;;;18.77;;
12654;SDS011;6392;44.644;11.448;2023-02-01T11:11:54;36.07;;;19.70;;
12654;SDS011;6392;44.644;11.448;2023-02-01T11:14:27;38.43;;;20.20;;
12654;SDS011;6392;44.644;11.448;2023-02-01T11:17:01;33.90;;;19.67;;
12654;SDS011;6392;44.644;11.448;2023-02-01T11:19:37;38.03;;;21.63;;
12654;SDS011;6392;44.644;11.448;2023-02-01T11:22:04;34.60;;;20.30;;
12654;SDS011;6392;44.644;11.448;2023-02-01T11:24:35;36.50;;;20.63;;
12654;SDS011;6392;44.644;11.448;2023-02-01T11:27:06;35.03;;;20.37;;
12654;SDS011;6392;44.644;11.448;2023-02-01T11:29:41;31.23;;;18.93;;
12654;SDS011;6392;44.644;11.448;2023-02-01T11:32:11;36.17;;;20.03;;
12654;SDS011;6392;44.644;11.448;2023-02-01T11:34:41;34.53;;;19.70;;
12654;SDS011;6392;44.644;11.448;2023-02-01T11:37:13;34.43;;;19.27;;
12654;SDS011;6392;44.644;11.448;2023-02-01T11:39:44;36.13;;;20.03;;
12654;SDS011;6392;44.644;11.448;2023-02-01T11:42:21;34.90;;;19.43;;
12654;SDS011;6392;44.644;11.448;2023-02-01T11:44:48;40.13;;;20.10;;
12654;SDS011;6392;44.644;11.448;2023-02-01T11:47:20;32.93;;;18.40;;
12654;SDS011;6392;44.644;11.448;2023-02-01T11:49:50;34.87;;;19.13;;
12654;SDS011;6392;44.644;11.448;2023-02-01T11:52:20;33.47;;;19.50;;
12654;SDS011;6392;44.644;11.448;2023-02-01T11:55:27;37.80;;;19.70;;
12654;SDS011;6392;44.644;11.448;2023-02-01T11:58:09;33.70;;;18.83;;
12654;SDS011;6392;44.644;11.448;2023-02-01T12:00:59;37.87;;;18.97;;
12654;SDS011;6392;44.644;11.448;2023-02-01T12:03:45;33.07;;;19.37;;
12654;SDS011;6392;44.644;11.448;2023-02-01T12:06:34;29.77;;;18.10;;
12654;SDS011;6392;44.644;11.448;2023-02-01T12:12:05;29.50;;;16.97;;
12654;SDS011;6392;44.644;11.448;2023-02-01T12:14:45;32.00;;;18.40;;
12654;SDS011;6392;44.644;11.448;2023-02-01T12:23:27;25.10;;;16.80;;
12654;SDS011;6392;44.644;11.448;2023-02-01T12:26:12;33.10;;;16.10;;
12654;SDS011;6392;44.644;11.448;2023-02-01T12:29:07;24.53;;;15.13;;
12654;SDS011;6392;44.644;11.448;2023-02-01T12:34:50;28.77;;;15.20;;
12654;SDS011;6392;44.644;11.448;2023-02-01T12:37:33;24.33;;;14.17;;
12654;SDS011;6392;44.644;11.448;2023-02-01T12:40:18;26.23;;;15.00;;
12654;SDS011;6392;44.644;11.448;2023-02-01T12:42:52;25.47;;;13.90;;
12654;SDS011;6392;44.644;11.448;2023-02-01T12:45:26;21.83;;;10.50;;
12654;SDS011;6392;44.644;11.448;2023-02-01T12:47:59;18.43;;;11.23;;
12654;SDS011;6392;44.644;11.448;2023-02-01T12:50:47;17.73;;;10.37;;
12654;SDS011;6392;44.644;11.448;2023-02-01T12:53:18;20.23;;;12.50;;
12654;SDS011;6392;44.644;11.448;2023-02-01T12:55:52;20.23;;;10.50;;
12654;SDS011;6392;44.644;11.448;2023-02-01T12:58:23;17.53;;;9.47;;
12654;SDS011;6392;44.644;11.448;2023-02-01T13:00:57;17.37;;;10.77;;
12654;SDS011;6392;44.644;11.448;2023-02-01T13:03:28;16.60;;;9.93;;
12654;SDS011;6392;44.644;11.448;2023-02-01T13:06:04;16.17;;;9.60;;
12654;SDS011;6392;44.644;11.448;2023-02-01T13:08:38;14.03;;;8.77;;
12654;SDS011;6392;44.644;11.448;2023-02-01T13:11:10;16.73;;;9.03;;
12654;SDS011;6392;44.644;11.448;2023-02-01T13:13:44;14.77;;;8.97;;
12654;SDS011;6392;44.644;11.448;2023-02-01T13:16:16;19.33;;;8.87;;
12654;SDS011;6392;44.644;11.448;2023-02-01T13:18:53;14.53;;;8.17;;
12654;SDS011;6392;44.644;11.448;2023-02-01T13:21:26;15.03;;;8.33;;
12654;SDS011;6392;44.644;11.448;2023-02-01T13:23:58;15.47;;;9.37;;
12654;SDS011;6392;44.644;11.448;2023-02-01T13:26:25;17.57;;;9.47;;
12654;SDS011;6392;44.644;11.448;2023-02-01T13:28:53;11.97;;;7.83;;
12654;SDS011;6392;44.644;11.448;2023-02-01T13:31:40;17.70;;;9.67;;
12654;SDS011;6392;44.644;11.448;2023-02-01T13:37:39;15.73;;;9.03;;
12654;SDS011;6392;44.644;11.448;2023-02-01T13:40:18;16.43;;;9.40;;
12654;SDS011;6392;44.644;11.448;2023-02-01T13:42:57;12.43;;;8.43;;
12654;SDS011;6392;44.644;11.448;2023-02-01T13:45:27;18.43;;;10.70;;
12654;SDS011;6392;44.644;11.448;2023-02-01T13:47:59;15.07;;;9.30;;
12654;SDS011;6392;44.644;11.448;2023-02-01T13:50:30;18.40;;;9.23;;
12654;SDS011;6392;44.644;11.448;2023-02-01T13:53:03;13.90;;;8.17;;
12654;SDS011;6392;44.644;11.448;2023-02-01T13:55:40;18.10;;;7.87;;
12654;SDS011;6392;44.644;11.448;2023-02-01T13:58:15;17.10;;;8.47;;
12654;SDS011;6392;44.644;11.448;2023-02-01T14:00:46;14.20;;;8.30;;
12654;SDS011;6392;44.644;11.448;2023-02-01T14:03:21;15.97;;;8.10;;
12654;SDS011;6392;44.644;11.448;2023-02-01T14:06:02;13.93;;;8.97;;
12654;SDS011;6392;44.644;11.448;2023-02-01T14:08:43;16.57;;;8.53;;
12654;SDS011;6392;44.644;11.448;2023-02-01T14:23:21;15.43;;;8.93;;
12654;SDS011;6392;44.644;11.448;2023-02-01T14:26:07;10.33;;;6.47;;
12654;SDS011;6392;44.644;11.448;2023-02-01T14:28:44;12.77;;;7.20;;
12654;SDS011;6392;44.644;11.448;2023-02-01T14:31:30;14.57;;;7.90;;
12654;SDS011;6392;44.644;11.448;2023-02-01T14:34:14;18.77;;;7.60;;
12654;SDS011;6392;44.644;11.448;2023-02-01T14:36:46;9.87;;;5.83;;
12654;SDS011;6392;44.644;11.448;2023-02-01T14:39:22;12.93;;;7.67;;
12654;SDS011;6392;44.644;11.448;2023-02-01T14:42:05;11.63;;;7.90;;
12654;SDS011;6392;44.644;11.448;2023-02-01T14:44:47;12.53;;;7.33;;
12654;SDS011;6392;44.644;11.448;2023-02-01T14:50:10;9.50;;;5.40;;
12654;SDS011;6392;44.644;11.448;2023-02-01T14:53:14;9.77;;;5.50;;
12654;SDS011;6392;44.644;11.448;2023-02-01T14:55:49;12.93;;;5.70;;
12654;SDS011;6392;44.644;11.448;2023-02-01T14:58:27;14.83;;;6.47;;
12654;SDS011;6392;44.644;11.448;2023-02-01T15:01:00;12.50;;;6.60;;
12654;SDS011;6392;44.644;11.448;2023-02-01T15:03:34;12.13;;;6.23;;
12654;SDS011;6392;44.644;11.448;2023-02-01T15:06:16;12.30;;;6.30;;
12654;SDS011;6392;44.644;11.448;2023-02-01T15:08:49;12.27;;;6.40;;
12654;SDS011;6392;44.644;11.448;2023-02-01T15:11:22;14.40;;;6.30;;
12654;SDS011;6392;44.644;11.448;2023-02-01T15:13:49;10.00;;;6.40;;
12654;SDS011;6392;44.644;11.448;2023-02-01T15:16:20;12.47;;;6.60;;
12654;SDS011;6392;44.644;11.448;2023-02-01T15:18:49;13.67;;;7.93;;
12654;SDS011;6392;44.644;11.448;2023-02-01T15:21:17;10.60;;;6.90;;
12654;SDS011;6392;44.644;11.448;2023-02-01T15:23:45;17.33;;;7.63;;
12654;SDS011;6392;44.644;11.448;2023-02-01T15:26:26;13.53;;;7.20;;
12654;SDS011;6392;44.644;11.448;2023-02-01T15:28:55;15.20;;;7.33;;
12654;SDS011;6392;44.644;11.448;2023-02-01T15:31:36;15.50;;;7.67;;
12654;SDS011;6392;44.644;11.448;2023-02-01T15:34:05;16.77;;;7.83;;
12654;SDS011;6392;44.644;11.448;2023-02-01T15:36:33;12.90;;;7.63;;
12654;SDS011;6392;44.644;11.448;2023-02-01T15:39:12;18.90;;;8.13;;